sensor_id;sensor_type;location;lat;lon;timestamp;temperature;humidity
67249;SHT31;63247;54.300;18.592;2023-04-07T00:01:49;3.39;99.99
67249;SHT31;63247;54.300;18.592;2023-04-07T00:04:15;3.49;99.99
67249;SHT31;63247;54.300;18.592;2023-04-07T00:06:40;3.48;99.99
67249;SHT31;63247;54.300;18.592;2023-04-07T00:09:08;3.51;99.99
67249;SHT31;63247;54.300;18.592;2023-04-07T00:11:33;3.40;99.99
67249;SHT31;63247;54.300;18.592;2023-04-07T00:13:58;3.46;99.99
67249;SHT31;63247;54.300;18.592;2023-04-07T00:16:24;3.48;99.99
67249;SHT31;63247;54.300;18.592;2023-04-07T00:18:49;3.51;99.99
67249;SHT31;63247;54.300;18.592;2023-04-07T00:21:15;3.49;99.99
67249;SHT31;63247;54.300;18.592;2023-04-07T00:23:40;3.51;99.99
67249;SHT31;63247;54.300;18.592;2023-04-07T00:26:07;3.48;99.99
67249;SHT31;63247;54.300;18.592;2023-04-07T00:28:32;3.49;99.99
67249;SHT31;63247;54.300;18.592;2023-04-07T00:30:57;3.51;99.99
67249;SHT31;63247;54.300;18.592;2023-04-07T00:33:23;3.58;99.99
67249;SHT31;63247;54.300;18.592;2023-04-07T00:35:48;3.53;99.99
67249;SHT31;63247;54.300;18.592;2023-04-07T00:38:13;3.56;99.99
67249;SHT31;63247;54.300;18.592;2023-04-07T00:40:39;3.55;99.99
67249;SHT31;63247;54.300;18.592;2023-04-07T00:43:04;3.49;99.99
67249;SHT31;63247;54.300;18.592;2023-04-07T00:45:30;3.49;99.99
67249;SHT31;63247;54.300;18.592;2023-04-07T00:47:56;3.53;99.99
67249;SHT31;63247;54.300;18.592;2023-04-07T00:50:22;3.51;99.99
67249;SHT31;63247;54.300;18.592;2023-04-07T00:52:48;3.48;99.99
67249;SHT31;63247;54.300;18.592;2023-04-07T00:55:13;3.52;99.99
67249;SHT31;63247;54.300;18.592;2023-04-07T00:57:39;3.48;99.99
67249;SHT31;63247;54.300;18.592;2023-04-07T01:00:05;3.46;99.99
67249;SHT31;63247;54.300;18.592;2023-04-07T01:02:55;3.53;99.99
67249;SHT31;63247;54.300;18.592;2023-04-07T01:13:54;3.48;99.99
67249;SHT31;63247;54.300;18.592;2023-04-07T01:16:51;3.46;99.99
67249;SHT31;63247;54.300;18.592;2023-04-07T01:22:13;3.45;99.99
67249;SHT31;63247;54.300;18.592;2023-04-07T01:30:32;3.58;99.99
67249;SHT31;63247;54.300;18.592;2023-04-07T01:32:59;3.45;99.99
67249;SHT31;63247;54.300;18.592;2023-04-07T01:35:28;3.53;99.99
67249;SHT31;63247;54.300;18.592;2023-04-07T01:37:55;3.55;99.99
67249;SHT31;63247;54.300;18.592;2023-04-07T01:40:23;3.58;99.99
67249;SHT31;63247;54.300;18.592;2023-04-07T01:42:50;3.48;99.99
67249;SHT31;63247;54.300;18.592;2023-04-07T01:45:16;3.46;99.99
67249;SHT31;63247;54.300;18.592;2023-04-07T01:47:42;3.49;99.99
67249;SHT31;63247;54.300;18.592;2023-04-07T01:50:10;3.48;99.99
67249;SHT31;63247;54.300;18.592;2023-04-07T01:52:37;3.55;99.99
67249;SHT31;63247;54.300;18.592;2023-04-07T01:55:05;3.56;99.99
67249;SHT31;63247;54.300;18.592;2023-04-07T01:57:31;3.59;99.99
67249;SHT31;63247;54.300;18.592;2023-04-07T01:59:57;3.63;99.99
67249;SHT31;63247;54.300;18.592;2023-04-07T02:02:22;3.56;99.99
67249;SHT31;63247;54.300;18.592;2023-04-07T02:04:53;3.62;99.99
67249;SHT31;63247;54.300;18.592;2023-04-07T02:07:28;3.66;99.99
67249;SHT31;63247;54.300;18.592;2023-04-07T02:09:57;3.66;99.99
67249;SHT31;63247;54.300;18.592;2023-04-07T02:12:27;3.66;99.99
67249;SHT31;63247;54.300;18.592;2023-04-07T02:14:54;3.56;99.99
67249;SHT31;63247;54.300;18.592;2023-04-07T02:17:22;3.58;99.99
67249;SHT31;63247;54.300;18.592;2023-04-07T02:19:49;3.66;99.99
67249;SHT31;63247;54.300;18.592;2023-04-07T02:22:16;3.60;99.99
67249;SHT31;63247;54.300;18.592;2023-04-07T02:24:42;3.66;99.99
67249;SHT31;63247;54.300;18.592;2023-04-07T02:27:07;3.69;99.99
67249;SHT31;63247;54.300;18.592;2023-04-07T02:29:33;3.66;99.99
67249;SHT31;63247;54.300;18.592;2023-04-07T02:31:58;3.73;99.99
67249;SHT31;63247;54.300;18.592;2023-04-07T02:34:23;3.66;99.99
67249;SHT31;63247;54.300;18.592;2023-04-07T02:36:49;3.64;99.99
67249;SHT31;63247;54.300;18.592;2023-04-07T02:39:14;3.62;99.99
67249;SHT31;63247;54.300;18.592;2023-04-07T02:41:40;3.69;99.99
67249;SHT31;63247;54.300;18.592;2023-04-07T02:44:06;3.67;99.99
67249;SHT31;63247;54.300;18.592;2023-04-07T02:46:31;3.63;99.99
67249;SHT31;63247;54.300;18.592;2023-04-07T02:48:56;3.67;99.99
67249;SHT31;63247;54.300;18.592;2023-04-07T02:51:22;3.73;99.99
67249;SHT31;63247;54.300;18.592;2023-04-07T02:53:47;3.70;99.99
67249;SHT31;63247;54.300;18.592;2023-04-07T02:56:14;3.73;99.99
67249;SHT31;63247;54.300;18.592;2023-04-07T02:58:39;3.72;99.99
67249;SHT31;63247;54.300;18.592;2023-04-07T03:01:05;3.76;99.99
67249;SHT31;63247;54.300;18.592;2023-04-07T03:03:30;3.77;99.99
67249;SHT31;63247;54.300;18.592;2023-04-07T03:05:56;3.72;99.99
67249;SHT31;63247;54.300;18.592;2023-04-07T03:08:21;3.73;99.99
67249;SHT31;63247;54.300;18.592;2023-04-07T03:10:47;3.84;99.99
67249;SHT31;63247;54.300;18.592;2023-04-07T03:13:12;3.79;99.99
67249;SHT31;63247;54.300;18.592;2023-04-07T03:15:41;3.83;99.99
67249;SHT31;63247;54.300;18.592;2023-04-07T03:18:07;3.77;99.99
67249;SHT31;63247;54.300;18.592;2023-04-07T03:20:32;3.72;99.99
67249;SHT31;63247;54.300;18.592;2023-04-07T03:22:57;3.74;99.99
67249;SHT31;63247;54.300;18.592;2023-04-07T03:25:24;3.79;99.99
67249;SHT31;63247;54.300;18.592;2023-04-07T03:27:50;3.77;99.99
67249;SHT31;63247;54.300;18.592;2023-04-07T03:30:16;3.81;99.99
67249;SHT31;63247;54.300;18.592;2023-04-07T03:32:41;3.79;99.99
67249;SHT31;63247;54.300;18.592;2023-04-07T03:35:07;3.74;99.99
67249;SHT31;63247;54.300;18.592;2023-04-07T03:37:33;3.81;99.99
67249;SHT31;63247;54.300;18.592;2023-04-07T03:39:58;3.76;99.99
67249;SHT31;63247;54.300;18.592;2023-04-07T03:42:23;3.66;99.99
67249;SHT31;63247;54.300;18.592;2023-04-07T03:44:49;3.81;99.99
67249;SHT31;63247;54.300;18.592;2023-04-07T03:47:14;3.81;99.99
67249;SHT31;63247;54.300;18.592;2023-04-07T03:49:40;3.90;99.99
67249;SHT31;63247;54.300;18.592;2023-04-07T03:52:05;3.83;99.99
67249;SHT31;63247;54.300;18.592;2023-04-07T03:54:30;3.84;99.99
67249;SHT31;63247;54.300;18.592;2023-04-07T03:56:56;3.87;99.99
67249;SHT31;63247;54.300;18.592;2023-04-07T03:59:22;3.83;99.99
67249;SHT31;63247;54.300;18.592;2023-04-07T04:01:47;3.89;99.99
67249;SHT31;63247;54.300;18.592;2023-04-07T04:04:13;3.90;99.99
67249;SHT31;63247;54.300;18.592;2023-04-07T04:06:38;3.87;99.99
67249;SHT31;63247;54.300;18.592;2023-04-07T04:09:03;3.89;99.99
67249;SHT31;63247;54.300;18.592;2023-04-07T04:11:29;3.90;99.99
67249;SHT31;63247;54.300;18.592;2023-04-07T04:13:55;3.97;99.99
67249;SHT31;63247;54.300;18.592;2023-04-07T04:16:21;3.95;99.99
67249;SHT31;63247;54.300;18.592;2023-04-07T04:18:46;3.91;99.99
67249;SHT31;63247;54.300;18.592;2023-04-07T04:21:11;3.89;99.99
67249;SHT31;63247;54.300;18.592;2023-04-07T04:23:37;3.86;99.99
67249;SHT31;63247;54.300;18.592;2023-04-07T04:26:02;3.91;99.99
67249;SHT31;63247;54.300;18.592;2023-04-07T04:28:28;3.94;99.99
67249;SHT31;63247;54.300;18.592;2023-04-07T04:30:54;3.94;99.99
67249;SHT31;63247;54.300;18.592;2023-04-07T04:33:19;3.93;99.99
67249;SHT31;63247;54.300;18.592;2023-04-07T04:35:45;3.93;99.99
67249;SHT31;63247;54.300;18.592;2023-04-07T04:38:11;3.95;99.99
67249;SHT31;63247;54.300;18.592;2023-04-07T04:40:36;3.90;99.99
67249;SHT31;63247;54.300;18.592;2023-04-07T04:43:02;3.93;99.99
67249;SHT31;63247;54.300;18.592;2023-04-07T04:45:31;3.90;99.99
67249;SHT31;63247;54.300;18.592;2023-04-07T04:47:57;3.93;99.99
67249;SHT31;63247;54.300;18.592;2023-04-07T04:50:22;3.87;99.99
67249;SHT31;63247;54.300;18.592;2023-04-07T04:52:48;3.87;99.99
67249;SHT31;63247;54.300;18.592;2023-04-07T04:55:13;3.91;99.99
67249;SHT31;63247;54.300;18.592;2023-04-07T04:57:38;3.94;99.99
67249;SHT31;63247;54.300;18.592;2023-04-07T05:00:05;3.93;99.99
67249;SHT31;63247;54.300;18.592;2023-04-07T05:02:32;3.95;99.99
67249;SHT31;63247;54.300;18.592;2023-04-07T05:04:57;3.98;99.99
67249;SHT31;63247;54.300;18.592;2023-04-07T05:07:23;3.98;99.99
67249;SHT31;63247;54.300;18.592;2023-04-07T05:09:48;3.93;99.99
67249;SHT31;63247;54.300;18.592;2023-04-07T05:12:14;4.05;99.99
67249;SHT31;63247;54.300;18.592;2023-04-07T05:14:39;4.02;99.99
67249;SHT31;63247;54.300;18.592;2023-04-07T05:17:05;4.00;99.99
67249;SHT31;63247;54.300;18.592;2023-04-07T05:19:30;4.01;99.99
67249;SHT31;63247;54.300;18.592;2023-04-07T05:21:57;3.98;99.99
67249;SHT31;63247;54.300;18.592;2023-04-07T05:24:24;4.02;99.99
67249;SHT31;63247;54.300;18.592;2023-04-07T05:26:50;4.07;99.99
67249;SHT31;63247;54.300;18.592;2023-04-07T05:29:15;4.10;99.99
67249;SHT31;63247;54.300;18.592;2023-04-07T05:31:41;4.10;99.99
67249;SHT31;63247;54.300;18.592;2023-04-07T05:34:06;4.08;99.99
67249;SHT31;63247;54.300;18.592;2023-04-07T05:36:34;4.08;99.99
67249;SHT31;63247;54.300;18.592;2023-04-07T05:39:00;4.15;99.99
67249;SHT31;63247;54.300;18.592;2023-04-07T05:41:25;4.12;99.99
67249;SHT31;63247;54.300;18.592;2023-04-07T05:43:51;4.04;99.99
67249;SHT31;63247;54.300;18.592;2023-04-07T05:46:16;4.14;99.99
67249;SHT31;63247;54.300;18.592;2023-04-07T05:48:42;4.11;99.99
67249;SHT31;63247;54.300;18.592;2023-04-07T05:51:07;4.14;99.99
67249;SHT31;63247;54.300;18.592;2023-04-07T05:53:32;4.20;99.99
67249;SHT31;63247;54.300;18.592;2023-04-07T05:55:58;4.21;99.99
67249;SHT31;63247;54.300;18.592;2023-04-07T05:58:23;4.27;99.99
67249;SHT31;63247;54.300;18.592;2023-04-07T06:00:49;4.35;99.99
67249;SHT31;63247;54.300;18.592;2023-04-07T06:03:14;4.32;99.99
67249;SHT31;63247;54.300;18.592;2023-04-07T06:05:40;4.34;99.99
67249;SHT31;63247;54.300;18.592;2023-04-07T06:08:08;4.37;99.99
67249;SHT31;63247;54.300;18.592;2023-04-07T06:10:35;4.37;99.99
67249;SHT31;63247;54.300;18.592;2023-04-07T06:13:00;4.46;99.99
67249;SHT31;63247;54.300;18.592;2023-04-07T06:15:26;4.28;99.99
67249;SHT31;63247;54.300;18.592;2023-04-07T06:17:51;4.41;99.99
67249;SHT31;63247;54.300;18.592;2023-04-07T06:20:17;4.31;99.99
67249;SHT31;63247;54.300;18.592;2023-04-07T06:22:44;4.41;99.99
67249;SHT31;63247;54.300;18.592;2023-04-07T06:25:09;4.39;99.99
67249;SHT31;63247;54.300;18.592;2023-04-07T06:27:35;4.31;99.99
67249;SHT31;63247;54.300;18.592;2023-04-07T06:30:00;4.34;99.99
67249;SHT31;63247;54.300;18.592;2023-04-07T06:32:26;4.41;99.99
67249;SHT31;63247;54.300;18.592;2023-04-07T06:34:52;4.42;99.99
67249;SHT31;63247;54.300;18.592;2023-04-07T06:37:17;4.49;99.99
67249;SHT31;63247;54.300;18.592;2023-04-07T06:39:43;4.34;99.99
67249;SHT31;63247;54.300;18.592;2023-04-07T06:42:09;4.39;99.99
67249;SHT31;63247;54.300;18.592;2023-04-07T06:44:34;4.24;99.99
67249;SHT31;63247;54.300;18.592;2023-04-07T06:47:00;4.38;99.99
67249;SHT31;63247;54.300;18.592;2023-04-07T06:49:25;4.44;99.99
67249;SHT31;63247;54.300;18.592;2023-04-07T06:51:51;4.39;99.99
67249;SHT31;63247;54.300;18.592;2023-04-07T06:54:16;4.39;99.99
67249;SHT31;63247;54.300;18.592;2023-04-07T06:56:42;4.53;99.99
67249;SHT31;63247;54.300;18.592;2023-04-07T06:59:08;4.56;99.99
67249;SHT31;63247;54.300;18.592;2023-04-07T07:01:33;4.58;99.99
67249;SHT31;63247;54.300;18.592;2023-04-07T07:03:59;4.39;99.99
67249;SHT31;63247;54.300;18.592;2023-04-07T07:06:25;4.39;99.99
67249;SHT31;63247;54.300;18.592;2023-04-07T07:08:51;4.38;99.99
67249;SHT31;63247;54.300;18.592;2023-04-07T07:11:17;4.48;99.99
67249;SHT31;63247;54.300;18.592;2023-04-07T07:13:42;4.60;99.99
67249;SHT31;63247;54.300;18.592;2023-04-07T07:16:09;4.70;99.99
67249;SHT31;63247;54.300;18.592;2023-04-07T07:18:35;4.46;99.99
67249;SHT31;63247;54.300;18.592;2023-04-07T07:21:01;4.44;99.99
67249;SHT31;63247;54.300;18.592;2023-04-07T07:23:26;4.52;99.99
67249;SHT31;63247;54.300;18.592;2023-04-07T07:25:52;4.62;99.99
67249;SHT31;63247;54.300;18.592;2023-04-07T07:28:17;4.62;99.99
67249;SHT31;63247;54.300;18.592;2023-04-07T07:30:42;4.59;99.99
67249;SHT31;63247;54.300;18.592;2023-04-07T07:33:08;4.68;99.99
67249;SHT31;63247;54.300;18.592;2023-04-07T07:35:34;4.75;99.99
67249;SHT31;63247;54.300;18.592;2023-04-07T07:37:59;4.63;99.99
67249;SHT31;63247;54.300;18.592;2023-04-07T07:40:25;4.93;99.99
67249;SHT31;63247;54.300;18.592;2023-04-07T07:42:50;5.13;99.99
67249;SHT31;63247;54.300;18.592;2023-04-07T07:45:16;5.20;99.99
67249;SHT31;63247;54.300;18.592;2023-04-07T07:47:43;5.23;99.99
67249;SHT31;63247;54.300;18.592;2023-04-07T07:50:09;5.03;99.99
67249;SHT31;63247;54.300;18.592;2023-04-07T07:52:35;4.97;99.99
67249;SHT31;63247;54.300;18.592;2023-04-07T07:55:00;4.93;99.99
67249;SHT31;63247;54.300;18.592;2023-04-07T07:57:26;5.00;99.99
67249;SHT31;63247;54.300;18.592;2023-04-07T07:59:51;4.94;99.99
67249;SHT31;63247;54.300;18.592;2023-04-07T08:02:17;4.93;99.99
67249;SHT31;63247;54.300;18.592;2023-04-07T08:04:43;5.01;99.99
67249;SHT31;63247;54.300;18.592;2023-04-07T08:07:09;4.99;99.99
67249;SHT31;63247;54.300;18.592;2023-04-07T08:09:36;5.08;99.99
67249;SHT31;63247;54.300;18.592;2023-04-07T08:12:02;5.34;99.99
67249;SHT31;63247;54.300;18.592;2023-04-07T08:14:28;5.35;99.99
67249;SHT31;63247;54.300;18.592;2023-04-07T08:16:53;5.26;99.99
67249;SHT31;63247;54.300;18.592;2023-04-07T08:19:19;5.60;99.99
67249;SHT31;63247;54.300;18.592;2023-04-07T08:21:44;5.73;99.99
67249;SHT31;63247;54.300;18.592;2023-04-07T08:24:10;5.62;99.99
67249;SHT31;63247;54.300;18.592;2023-04-07T08:26:35;5.56;99.99
67249;SHT31;63247;54.300;18.592;2023-04-07T08:29:01;5.58;99.99
67249;SHT31;63247;54.300;18.592;2023-04-07T08:31:26;5.55;99.99
67249;SHT31;63247;54.300;18.592;2023-04-07T08:33:52;5.54;99.99
67249;SHT31;63247;54.300;18.592;2023-04-07T08:36:23;5.54;99.99
67249;SHT31;63247;54.300;18.592;2023-04-07T08:38:48;5.55;99.99
67249;SHT31;63247;54.300;18.592;2023-04-07T08:41:19;5.63;99.99
67249;SHT31;63247;54.300;18.592;2023-04-07T08:43:46;5.75;99.99
67249;SHT31;63247;54.300;18.592;2023-04-07T08:46:13;5.63;99.99
67249;SHT31;63247;54.300;18.592;2023-04-07T08:48:43;5.90;99.99
67249;SHT31;63247;54.300;18.592;2023-04-07T08:51:09;5.83;99.99
67249;SHT31;63247;54.300;18.592;2023-04-07T08:53:44;5.70;99.99
67249;SHT31;63247;54.300;18.592;2023-04-07T08:56:15;5.60;99.99
67249;SHT31;63247;54.300;18.592;2023-04-07T08:58:41;5.66;99.99
67249;SHT31;63247;54.300;18.592;2023-04-07T09:01:08;5.82;99.99
67249;SHT31;63247;54.300;18.592;2023-04-07T09:03:33;5.77;99.99
67249;SHT31;63247;54.300;18.592;2023-04-07T09:06:00;5.76;99.99
67249;SHT31;63247;54.300;18.592;2023-04-07T09:08:26;5.72;99.99
67249;SHT31;63247;54.300;18.592;2023-04-07T09:10:52;5.56;99.99
67249;SHT31;63247;54.300;18.592;2023-04-07T09:13:18;5.52;99.99
67249;SHT31;63247;54.300;18.592;2023-04-07T09:15:44;5.44;99.99
67249;SHT31;63247;54.300;18.592;2023-04-07T09:18:10;5.45;99.99
67249;SHT31;63247;54.300;18.592;2023-04-07T09:20:58;5.56;99.99
67249;SHT31;63247;54.300;18.592;2023-04-07T09:23:35;5.60;99.99
67249;SHT31;63247;54.300;18.592;2023-04-07T09:26:19;5.87;99.99
67249;SHT31;63247;54.300;18.592;2023-04-07T09:28:57;6.11;99.61
67249;SHT31;63247;54.300;18.592;2023-04-07T09:31:46;6.46;98.95
67249;SHT31;63247;54.300;18.592;2023-04-07T09:34:32;6.44;98.51
67249;SHT31;63247;54.300;18.592;2023-04-07T09:36:58;6.38;98.57
67249;SHT31;63247;54.300;18.592;2023-04-07T09:39:24;6.41;98.82
67249;SHT31;63247;54.300;18.592;2023-04-07T09:41:50;6.35;98.41
67249;SHT31;63247;54.300;18.592;2023-04-07T09:44:17;6.42;98.16
67249;SHT31;63247;54.300;18.592;2023-04-07T09:49:17;6.45;97.78
67249;SHT31;63247;54.300;18.592;2023-04-07T09:51:58;6.59;97.26
67249;SHT31;63247;54.300;18.592;2023-04-07T09:54:40;6.65;96.97
67249;SHT31;63247;54.300;18.592;2023-04-07T09:57:10;6.61;97.07
67249;SHT31;63247;54.300;18.592;2023-04-07T09:59:37;6.33;97.48
67249;SHT31;63247;54.300;18.592;2023-04-07T10:02:03;6.40;97.81
67249;SHT31;63247;54.300;18.592;2023-04-07T10:04:29;6.56;97.19
67249;SHT31;63247;54.300;18.592;2023-04-07T10:06:56;6.56;97.25
67249;SHT31;63247;54.300;18.592;2023-04-07T10:09:22;6.78;96.60
67249;SHT31;63247;54.300;18.592;2023-04-07T10:11:49;6.76;96.36
67249;SHT31;63247;54.300;18.592;2023-04-07T10:14:15;6.79;96.16
67249;SHT31;63247;54.300;18.592;2023-04-07T10:16:42;7.09;95.86
67249;SHT31;63247;54.300;18.592;2023-04-07T10:19:08;7.06;95.47
67249;SHT31;63247;54.300;18.592;2023-04-07T10:21:39;7.35;94.97
67249;SHT31;63247;54.300;18.592;2023-04-07T10:26:55;8.30;92.52
67249;SHT31;63247;54.300;18.592;2023-04-07T10:29:23;8.19;92.62
67249;SHT31;63247;54.300;18.592;2023-04-07T10:31:50;8.17;92.56
67249;SHT31;63247;54.300;18.592;2023-04-07T10:34:16;8.46;92.03
67249;SHT31;63247;54.300;18.592;2023-04-07T10:37:11;8.36;91.33
67249;SHT31;63247;54.300;18.592;2023-04-07T10:39:38;8.16;91.83
67249;SHT31;63247;54.300;18.592;2023-04-07T10:42:03;8.17;92.05
67249;SHT31;63247;54.300;18.592;2023-04-07T10:47:04;8.57;90.70
67249;SHT31;63247;54.300;18.592;2023-04-07T10:49:31;8.63;90.79
67249;SHT31;63247;54.300;18.592;2023-04-07T10:54:35;9.53;89.21
67249;SHT31;63247;54.300;18.592;2023-04-07T10:59:26;9.47;87.84
67249;SHT31;63247;54.300;18.592;2023-04-07T11:04:43;9.80;87.06
67249;SHT31;63247;54.300;18.592;2023-04-07T11:07:09;9.98;86.18
67249;SHT31;63247;54.300;18.592;2023-04-07T11:09:34;9.70;87.19
67249;SHT31;63247;54.300;18.592;2023-04-07T11:12:00;10.05;86.76
67249;SHT31;63247;54.300;18.592;2023-04-07T11:14:31;9.91;86.39
67249;SHT31;63247;54.300;18.592;2023-04-07T11:16:58;9.99;86.16
67249;SHT31;63247;54.300;18.592;2023-04-07T11:19:23;10.04;86.20
67249;SHT31;63247;54.300;18.592;2023-04-07T11:21:49;10.04;85.45
67249;SHT31;63247;54.300;18.592;2023-04-07T11:24:33;9.93;85.96
67249;SHT31;63247;54.300;18.592;2023-04-07T11:26:59;10.25;85.28
67249;SHT31;63247;54.300;18.592;2023-04-07T11:29:32;10.06;85.24
67249;SHT31;63247;54.300;18.592;2023-04-07T11:32:00;9.95;85.37
67249;SHT31;63247;54.300;18.592;2023-04-07T11:34:33;9.85;86.04
67249;SHT31;63247;54.300;18.592;2023-04-07T11:37:18;10.32;85.22
67249;SHT31;63247;54.300;18.592;2023-04-07T11:39:43;10.39;84.50
67249;SHT31;63247;54.300;18.592;2023-04-07T11:42:12;10.81;83.70
67249;SHT31;63247;54.300;18.592;2023-04-07T11:44:46;10.42;83.67
67249;SHT31;63247;54.300;18.592;2023-04-07T11:47:11;10.63;83.61
67249;SHT31;63247;54.300;18.592;2023-04-07T11:49:44;10.77;83.27
67249;SHT31;63247;54.300;18.592;2023-04-07T11:52:10;10.70;83.58
67249;SHT31;63247;54.300;18.592;2023-04-07T11:54:46;10.41;83.58
67249;SHT31;63247;54.300;18.592;2023-04-07T11:57:11;10.32;84.10
67249;SHT31;63247;54.300;18.592;2023-04-07T11:59:38;10.43;83.67
67249;SHT31;63247;54.300;18.592;2023-04-07T12:02:06;9.99;84.52
67249;SHT31;63247;54.300;18.592;2023-04-07T12:04:32;10.36;84.18
67249;SHT31;63247;54.300;18.592;2023-04-07T12:07:10;10.60;83.86
67249;SHT31;63247;54.300;18.592;2023-04-07T12:09:36;10.66;82.77
67249;SHT31;63247;54.300;18.592;2023-04-07T12:12:03;10.57;83.29
67249;SHT31;63247;54.300;18.592;2023-04-07T12:14:33;10.55;82.72
67249;SHT31;63247;54.300;18.592;2023-04-07T12:16:59;10.73;83.19
67249;SHT31;63247;54.300;18.592;2023-04-07T12:19:28;10.70;83.09
67249;SHT31;63247;54.300;18.592;2023-04-07T12:21:55;10.94;82.74
67249;SHT31;63247;54.300;18.592;2023-04-07T12:27:47;11.01;82.02
67249;SHT31;63247;54.300;18.592;2023-04-07T12:30:13;11.07;81.22
67249;SHT31;63247;54.300;18.592;2023-04-07T12:32:39;11.14;81.57
67249;SHT31;63247;54.300;18.592;2023-04-07T12:35:05;10.98;81.16
67249;SHT31;63247;54.300;18.592;2023-04-07T12:37:31;10.66;82.00
67249;SHT31;63247;54.300;18.592;2023-04-07T12:39:57;10.25;82.47
67249;SHT31;63247;54.300;18.592;2023-04-07T12:42:23;9.99;83.22
67249;SHT31;63247;54.300;18.592;2023-04-07T12:44:48;10.23;82.29
67249;SHT31;63247;54.300;18.592;2023-04-07T12:47:14;10.41;82.82
67249;SHT31;63247;54.300;18.592;2023-04-07T12:49:40;10.53;82.73
67249;SHT31;63247;54.300;18.592;2023-04-07T12:52:07;10.32;82.52
67249;SHT31;63247;54.300;18.592;2023-04-07T12:54:33;10.15;82.91
67249;SHT31;63247;54.300;18.592;2023-04-07T12:56:58;10.15;83.30
67249;SHT31;63247;54.300;18.592;2023-04-07T12:59:24;10.18;83.11
67249;SHT31;63247;54.300;18.592;2023-04-07T13:01:49;10.22;82.92
67249;SHT31;63247;54.300;18.592;2023-04-07T13:04:15;10.05;84.30
67249;SHT31;63247;54.300;18.592;2023-04-07T13:06:42;10.23;83.79
67249;SHT31;63247;54.300;18.592;2023-04-07T13:09:07;9.94;83.64
67249;SHT31;63247;54.300;18.592;2023-04-07T13:11:33;9.71;83.97
67249;SHT31;63247;54.300;18.592;2023-04-07T13:13:58;9.63;84.01
67249;SHT31;63247;54.300;18.592;2023-04-07T13:16:23;9.50;84.32
67249;SHT31;63247;54.300;18.592;2023-04-07T13:18:49;9.04;84.73
67249;SHT31;63247;54.300;18.592;2023-04-07T13:21:15;9.09;85.62
67249;SHT31;63247;54.300;18.592;2023-04-07T13:23:43;8.99;85.38
67249;SHT31;63247;54.300;18.592;2023-04-07T13:26:08;9.15;85.29
67249;SHT31;63247;54.300;18.592;2023-04-07T13:28:33;9.09;85.93
67249;SHT31;63247;54.300;18.592;2023-04-07T13:30:59;9.02;85.39
67249;SHT31;63247;54.300;18.592;2023-04-07T13:33:25;9.11;85.22
67249;SHT31;63247;54.300;18.592;2023-04-07T13:35:50;8.85;85.70
67249;SHT31;63247;54.300;18.592;2023-04-07T13:38:16;8.98;85.63
67249;SHT31;63247;54.300;18.592;2023-04-07T13:40:41;9.09;85.98
67249;SHT31;63247;54.300;18.592;2023-04-07T13:43:09;8.88;85.83
67249;SHT31;63247;54.300;18.592;2023-04-07T13:45:36;8.79;86.17
67249;SHT31;63247;54.300;18.592;2023-04-07T13:48:01;8.87;86.05
67249;SHT31;63247;54.300;18.592;2023-04-07T13:50:27;9.05;85.74
67249;SHT31;63247;54.300;18.592;2023-04-07T13:52:53;8.91;85.72
67249;SHT31;63247;54.300;18.592;2023-04-07T13:55:18;8.75;85.86
67249;SHT31;63247;54.300;18.592;2023-04-07T13:57:45;8.87;85.96
67249;SHT31;63247;54.300;18.592;2023-04-07T14:00:11;8.56;86.27
67249;SHT31;63247;54.300;18.592;2023-04-07T14:02:36;8.69;86.74
67249;SHT31;63247;54.300;18.592;2023-04-07T14:05:02;8.77;86.12
67249;SHT31;63247;54.300;18.592;2023-04-07T14:07:28;8.96;85.81
67249;SHT31;63247;54.300;18.592;2023-04-07T14:09:53;9.09;84.76
67249;SHT31;63247;54.300;18.592;2023-04-07T14:12:19;9.04;85.42
67249;SHT31;63247;54.300;18.592;2023-04-07T14:14:46;8.96;85.19
67249;SHT31;63247;54.300;18.592;2023-04-07T14:17:12;9.01;85.69
67249;SHT31;63247;54.300;18.592;2023-04-07T14:19:37;8.87;85.53
67249;SHT31;63247;54.300;18.592;2023-04-07T14:22:03;9.14;85.10
67249;SHT31;63247;54.300;18.592;2023-04-07T14:24:28;9.08;84.98
67249;SHT31;63247;54.300;18.592;2023-04-07T14:26:54;9.15;84.86
67249;SHT31;63247;54.300;18.592;2023-04-07T14:29:19;9.23;84.33
67249;SHT31;63247;54.300;18.592;2023-04-07T14:31:45;9.22;84.26
67249;SHT31;63247;54.300;18.592;2023-04-07T14:34:13;9.33;84.49
67249;SHT31;63247;54.300;18.592;2023-04-07T14:36:38;9.33;84.10
67249;SHT31;63247;54.300;18.592;2023-04-07T14:39:04;9.37;84.40
67249;SHT31;63247;54.300;18.592;2023-04-07T14:41:29;9.37;84.12
67249;SHT31;63247;54.300;18.592;2023-04-07T14:43:55;9.46;83.73
67249;SHT31;63247;54.300;18.592;2023-04-07T14:46:22;9.58;83.61
67249;SHT31;63247;54.300;18.592;2023-04-07T14:48:48;9.53;84.00
67249;SHT31;63247;54.300;18.592;2023-04-07T14:51:16;9.51;83.94
67249;SHT31;63247;54.300;18.592;2023-04-07T14:53:41;9.51;83.80
67249;SHT31;63247;54.300;18.592;2023-04-07T14:56:07;9.56;83.97
67249;SHT31;63247;54.300;18.592;2023-04-07T14:58:33;9.60;84.04
67249;SHT31;63247;54.300;18.592;2023-04-07T15:01:01;9.53;84.08
67249;SHT31;63247;54.300;18.592;2023-04-07T15:03:27;9.60;83.86
67249;SHT31;63247;54.300;18.592;2023-04-07T15:05:52;9.63;83.72
67249;SHT31;63247;54.300;18.592;2023-04-07T15:08:18;9.61;83.65
67249;SHT31;63247;54.300;18.592;2023-04-07T15:10:43;9.65;83.94
67249;SHT31;63247;54.300;18.592;2023-04-07T15:13:08;9.60;83.77
67249;SHT31;63247;54.300;18.592;2023-04-07T15:15:34;9.77;83.49
67249;SHT31;63247;54.300;18.592;2023-04-07T15:18:00;9.70;83.94
67249;SHT31;63247;54.300;18.592;2023-04-07T15:20:25;9.75;83.94
67249;SHT31;63247;54.300;18.592;2023-04-07T15:22:50;9.80;83.77
67249;SHT31;63247;54.300;18.592;2023-04-07T15:25:16;9.71;83.65
67249;SHT31;63247;54.300;18.592;2023-04-07T15:27:41;9.65;83.71
67249;SHT31;63247;54.300;18.592;2023-04-07T15:30:07;9.53;84.04
67249;SHT31;63247;54.300;18.592;2023-04-07T15:32:33;9.58;84.34
67249;SHT31;63247;54.300;18.592;2023-04-07T15:34:58;9.46;84.77
67249;SHT31;63247;54.300;18.592;2023-04-07T15:37:24;9.50;84.68
67249;SHT31;63247;54.300;18.592;2023-04-07T15:39:50;9.35;85.00
67249;SHT31;63247;54.300;18.592;2023-04-07T15:42:15;9.39;85.18
67249;SHT31;63247;54.300;18.592;2023-04-07T15:44:41;9.44;85.35
67249;SHT31;63247;54.300;18.592;2023-04-07T15:47:07;9.54;85.14
67249;SHT31;63247;54.300;18.592;2023-04-07T15:49:33;9.44;84.99
67249;SHT31;63247;54.300;18.592;2023-04-07T15:52:03;9.46;85.32
67249;SHT31;63247;54.300;18.592;2023-04-07T15:54:29;9.53;85.25
67249;SHT31;63247;54.300;18.592;2023-04-07T15:56:54;9.29;85.47
67249;SHT31;63247;54.300;18.592;2023-04-07T15:59:20;9.29;85.77
67249;SHT31;63247;54.300;18.592;2023-04-07T16:01:45;9.42;85.57
67249;SHT31;63247;54.300;18.592;2023-04-07T16:04:11;9.36;85.78